createdAt,value
2016-07-04T16:22:30.187Z,29.33
2016-07-04T16:23:30.184Z,29.13
2016-07-04T16:24:30.204Z,29.03
2016-07-04T16:25:29.599Z,28.55
2016-07-04T16:26:29.605Z,29.13
2016-07-04T16:27:29.609Z,29.43
2016-07-04T16:28:29.635Z,29.91
2016-07-04T16:29:30.493Z,29.6
2016-07-04T16:30:30.288Z,29.32
2016-07-04T16:31:29.674Z,29.7
2016-07-04T16:32:29.686Z,29.9
2016-07-04T16:33:29.695Z,29.9
2016-07-04T16:34:29.923Z,29.99
2016-07-04T16:35:30.332Z,30.08
2016-07-04T16:36:44.795Z,31.44
2016-07-04T16:37:30.393Z,31.81
2016-07-04T16:38:30.396Z,31.81
2016-07-04T16:39:29.786Z,32.49
2016-07-04T16:40:29.800Z,33.17
2016-07-04T16:41:29.815Z,33.44
2016-07-04T16:42:30.029Z,33.54
2016-07-04T16:44:30.497Z,33.44
2016-07-04T16:45:30.504Z,32.38
2016-07-04T16:46:29.890Z,32.67
2016-07-04T16:47:30.529Z,32.76
2016-07-04T16:48:29.909Z,32.18
2016-07-04T16:49:29.924Z,32.38
2016-07-04T16:50:30.876Z,31.99
2016-07-04T16:51:30.991Z,32.28
2016-07-04T16:52:29.986Z,32.75
2016-07-04T16:53:45.022Z,32.17
2016-07-04T16:54:31.031Z,32.38
2016-07-04T16:55:30.625Z,31.49
2016-07-04T16:56:31.040Z,31.88
2016-07-04T16:57:30.631Z,31.49
2016-07-04T16:58:30.066Z,32.17
2016-07-04T16:59:45.913Z,32.46
2016-07-04T17:00:30.458Z,31.98
2016-07-04T17:01:30.929Z,32.17
2016-07-04T17:02:45.343Z,31.99
2016-07-04T17:04:30.747Z,31.59
2016-07-04T17:05:30.778Z,31.1
2016-07-04T17:09:31.253Z,30.91
2016-07-04T17:10:30.614Z,30.72
2016-07-04T17:11:30.420Z,30.72
2016-07-04T17:12:45.477Z,31.88
2016-07-04T17:13:30.883Z,32.94
2016-07-04T17:14:30.271Z,31.98
2016-07-04T17:15:30.261Z,32.07
2016-07-04T17:16:30.936Z,32.86
2016-07-04T17:17:30.713Z,33.44
2016-07-04T17:18:31.352Z,33.04
2016-07-04T17:19:31.169Z,33.44
2016-07-04T17:20:45.577Z,33.44
2016-07-04T17:21:31.000Z,32.86
2016-07-04T17:22:30.985Z,32.28
2016-07-04T17:23:31.220Z,32.18
2016-07-04T17:24:31.018Z,31.51
2016-07-04T17:25:30.409Z,32.39
2016-07-04T17:27:30.709Z,31.12
2016-07-04T17:28:31.291Z,31.51
2016-07-04T17:29:30.867Z,30.35
2016-07-04T17:30:30.751Z,30.07
2016-07-04T17:31:31.337Z,29.69
2016-07-04T17:32:31.144Z,29.1
2016-07-04T17:34:30.508Z,30.27
2016-07-04T17:36:31.399Z,30.93
2016-07-04T17:37:31.210Z,31.12
2016-07-04T17:38:31.174Z,31.12
2016-07-04T17:39:45.826Z,31.51
2016-07-04T17:40:31.236Z,31.8
2016-07-04T17:41:31.249Z,29.96
2016-07-04T17:43:31.820Z,30.83
2016-07-04T17:44:31.483Z,30.83
2016-07-04T17:45:31.504Z,31.12
2016-07-04T17:46:31.301Z,31.89
2016-07-04T17:47:45.950Z,29.96
2016-07-04T17:48:31.956Z,30.05
2016-07-04T17:49:31.346Z,30.93
2016-07-04T17:50:31.368Z,30.73
2016-07-04T17:51:45.588Z,30.05
2016-07-04T17:52:31.397Z,30.54
2016-07-04T17:53:31.631Z,31.51
2016-07-04T17:54:30.986Z,30.44
2016-07-04T17:56:46.050Z,31.51
2016-07-04T17:58:31.866Z,31.41
2016-07-04T17:59:31.685Z,31.6
2016-07-04T18:00:31.720Z,31.51
2016-07-04T18:01:30.878Z,31.6
2016-07-04T18:02:31.923Z,32.47
2016-07-04T18:03:31.493Z,31.7
2016-07-04T18:04:31.161Z,32.09
2016-07-04T18:05:45.962Z,31.89
2016-07-04T18:06:31.808Z,32.47
2016-07-04T18:07:31.573Z,32.38
2016-07-04T18:08:30.957Z,32.67
2016-07-04T18:09:30.976Z,32.38
2016-07-04T18:11:32.023Z,33.14
2016-07-04T18:13:31.857Z,32.56
2016-07-04T18:14:31.878Z,32.94
2016-07-04T18:15:31.903Z,33.33
2016-07-04T18:16:31.690Z,33.33
2016-07-04T18:17:32.306Z,33.42
2016-07-04T18:18:32.323Z,33.02
2016-07-04T18:19:31.744Z,33.31
2016-07-04T18:20:31.766Z,33.31
2016-07-04T18:21:31.754Z,34.08
2016-07-04T18:22:46.378Z,34.18
2016-07-04T18:23:31.791Z,34.38
2016-07-04T18:24:32.031Z,34.36
2016-07-04T18:25:32.010Z,34.45
2016-07-04T18:26:32.042Z,34.36
2016-07-04T18:27:32.255Z,34.36
2016-07-04T18:28:46.061Z,34.84
2016-07-04T18:29:31.234Z,35.13
2016-07-04T18:30:31.243Z,34.55
2016-07-04T18:31:31.436Z,34.26
2016-07-04T18:32:31.477Z,35.02
2016-07-04T18:34:31.282Z,37.04
2016-07-04T18:35:32.134Z,37.52
2016-07-04T18:36:32.152Z,38.1
2016-07-04T18:37:32.351Z,38.58
2016-07-04T18:38:32.601Z,38.76
2016-07-04T18:40:31.982Z,39.04
2016-07-04T18:41:31.971Z,39.82
2016-07-04T18:42:32.403Z,40.49
2016-07-04T18:43:32.422Z,40.39
2016-07-04T18:45:32.259Z,41.17
2016-07-04T18:46:32.048Z,41.27
2016-07-04T18:47:46.271Z,41.65
2016-07-04T18:48:32.512Z,42.11
2016-07-04T18:49:32.083Z,42.69
2016-07-04T18:50:31.861Z,43.07
2016-07-04T18:51:31.469Z,43.85
2016-07-04T18:52:31.688Z,44.81
2016-07-04T18:53:31.490Z,44.9
2016-07-04T18:55:31.510Z,45
2016-07-04T18:56:31.726Z,45.56
2016-07-04T18:57:31.890Z,45.75
2016-07-04T18:58:32.254Z,45.56
2016-07-04T18:59:32.212Z,45.84
2016-07-04T19:00:33.223Z,45.94
2016-07-04T19:01:33.326Z,46.14
2016-07-04T19:02:47.029Z,46.62
2016-07-04T19:03:32.438Z,46.88
2016-07-04T19:04:34.185Z,47.36
2016-07-04T19:05:32.692Z,47.17
2016-07-04T19:06:33.076Z,47.36
2016-07-04T19:07:33.376Z,47.17
2016-07-04T19:08:33.711Z,47.56
2016-07-04T19:09:32.582Z,47.85
2016-07-04T19:10:32.924Z,48.23
2016-07-04T19:11:32.322Z,48.4
2016-07-04T19:12:33.119Z,48.69
2016-07-04T19:13:31.712Z,49.55
2016-07-04T19:14:31.925Z,50.04
2016-07-04T19:15:46.809Z,50.32
2016-07-04T19:16:31.749Z,50.9
2016-07-04T19:17:32.156Z,50.71
2016-07-04T19:18:47.008Z,51.09
2016-07-04T19:19:31.967Z,51.64
2016-07-04T19:20:32.578Z,51.67
2016-07-04T19:21:32.426Z,51.74
2016-07-04T19:22:32.637Z,51.93
2016-07-04T19:23:47.050Z,52.32
2016-07-04T19:24:32.651Z,52.51
2016-07-04T19:25:32.501Z,52.89
2016-07-04T19:26:32.725Z,52.89
2016-07-04T19:28:32.235Z,53.66
2016-07-04T19:29:31.875Z,53.09
2016-07-04T19:30:31.905Z,53.06
2016-07-04T19:32:32.062Z,54.41
2016-07-04T19:33:32.554Z,54.79
2016-07-04T19:34:32.003Z,54.79
2016-07-04T19:35:32.114Z,55.27
2016-07-04T19:36:32.131Z,55.37
2016-07-04T19:37:32.845Z,55.27
2016-07-04T19:38:31.947Z,55.66
2016-07-04T19:39:31.961Z,56.14
2016-07-04T19:40:46.815Z,55.85
2016-07-04T19:41:32.895Z,56.33
2016-07-04T19:42:47.230Z,56.43
2016-07-04T19:43:47.472Z,56.59
2016-07-04T19:44:32.639Z,57.26
2016-07-04T19:45:32.656Z,56.98
2016-07-04T19:46:32.658Z,57.26
2016-07-04T19:47:32.663Z,57.93
2016-07-04T19:48:32.664Z,57.75
2016-07-04T19:49:32.673Z,57.65
2016-07-04T19:50:32.888Z,58.22
2016-07-04T19:51:32.069Z,58.03
2016-07-04T19:52:32.091Z,57.84
2016-07-04T19:53:32.086Z,58.42
2016-07-04T19:54:32.297Z,58.7
2016-07-04T19:55:32.100Z,58.61
2016-07-04T19:56:32.112Z,59.16
2016-07-04T19:57:32.120Z,58.8
2016-07-04T19:58:32.412Z,59.16
2016-07-04T19:59:47.187Z,60.69
2016-07-04T20:00:32.795Z,60.69
2016-07-04T20:01:33.007Z,60.5
2016-07-04T20:02:33.023Z,60.98
2016-07-04T20:03:32.365Z,60.78
2016-07-04T20:04:33.207Z,60.69
2016-07-04T20:05:32.188Z,60.4
2016-07-04T20:07:33.251Z,60.69
2016-07-04T20:08:32.883Z,61.08
2016-07-04T20:11:33.278Z,60.95
2016-07-04T20:12:32.877Z,60.75
2016-07-04T20:13:32.660Z,60.66
2016-07-04T20:14:32.870Z,61.52
2016-07-04T20:16:32.281Z,61.14
2016-07-04T20:18:32.298Z,60.75
2016-07-04T20:19:32.513Z,61.33
2016-07-04T20:20:32.311Z,61.05
2016-07-04T20:21:32.323Z,60.95
2016-07-04T20:22:32.533Z,60.57
2016-07-04T20:23:32.334Z,60.66
2016-07-04T20:24:47.605Z,60.95
2016-07-04T20:25:47.200Z,60.95
2016-07-04T20:27:32.377Z,60.57
2016-07-04T20:28:33.041Z,60.75
2016-07-04T20:29:32.897Z,61.72
2016-07-04T20:30:47.643Z,61.21
2016-07-04T20:31:47.446Z,62.19
2016-07-04T20:32:32.804Z,62.26
2016-07-04T20:33:33.662Z,62.55
2016-07-04T20:34:33.057Z,62.07
2016-07-04T20:35:33.068Z,62.26
2016-07-04T20:37:33.113Z,63.22
2016-07-04T20:38:33.097Z,62.74
2016-07-04T20:39:33.105Z,62.84
2016-07-04T20:40:33.115Z,63.03
2016-07-04T20:41:33.119Z,62.93
2016-07-04T20:42:33.127Z,62.84
2016-07-04T20:43:33.134Z,62.74
2016-07-04T20:44:33.142Z,63.6
2016-07-04T20:45:33.150Z,62.93
2016-07-04T20:46:33.151Z,63.29
2016-07-04T20:47:33.153Z,63.42
2016-07-04T20:48:33.159Z,63.32
2016-07-04T20:49:33.162Z,63.09
2016-07-04T20:50:33.180Z,63.22
2016-07-04T20:51:33.189Z,63.38
2016-07-04T20:52:33.184Z,63.19
2016-07-04T20:53:33.187Z,63.38
2016-07-04T20:54:33.200Z,63.38
2016-07-04T20:55:47.627Z,63.96
2016-07-04T20:56:33.248Z,63.86
2016-07-04T20:58:32.800Z,63.67
2016-07-04T20:59:33.238Z,63.86
2016-07-04T21:00:33.264Z,63.67
2016-07-04T21:01:47.675Z,63.86
2016-07-04T21:02:33.265Z,64.34
2016-07-04T21:03:47.483Z,63.57
2016-07-04T21:05:33.283Z,63.83
2016-07-04T21:06:33.291Z,64.05
2016-07-04T21:07:33.291Z,64.43
2016-07-04T21:08:33.318Z,64.15
2016-07-04T21:09:33.324Z,64.43
2016-07-04T21:10:48.140Z,64.98
2016-07-04T21:11:33.331Z,64.69
2016-07-04T21:12:33.549Z,64.69
2016-07-04T21:13:33.347Z,64.69
2016-07-04T21:14:33.357Z,64.79
2016-07-04T21:15:33.353Z,64.89
2016-07-04T21:16:33.363Z,65.17
2016-07-04T21:17:33.380Z,65.36
2016-07-04T21:18:33.388Z,64.89
2016-07-04T21:19:33.394Z,65.08
2016-07-04T21:20:33.411Z,65.36
2016-07-04T21:21:33.406Z,65.26
2016-07-04T21:22:33.415Z,65.36
2016-07-04T21:23:33.425Z,65.08
2016-07-04T21:24:33.663Z,64.79
2016-07-04T21:26:33.672Z,65.08
2016-07-04T21:27:33.456Z,64.79
2016-07-04T21:28:33.459Z,64.98
2016-07-04T21:30:33.487Z,64.69
2016-07-04T21:31:33.496Z,64.79
2016-07-04T21:32:33.501Z,64.59
2016-07-04T21:33:33.487Z,64.59
2016-07-04T21:34:48.107Z,64.59
2016-07-04T21:35:48.315Z,64.4
2016-07-04T21:36:47.920Z,64.79
2016-07-04T21:37:48.330Z,64.98
2016-07-04T21:38:33.522Z,64.69
2016-07-04T21:40:33.741Z,64.89
2016-07-04T21:41:33.543Z,64.79
2016-07-04T21:42:47.758Z,64.98
2016-07-04T21:43:47.966Z,64.69
2016-07-04T21:44:47.772Z,64.98
2016-07-04T21:45:33.129Z,65.36
2016-07-04T21:46:33.589Z,65.14
2016-07-04T21:47:33.769Z,64.95
2016-07-04T21:48:32.957Z,65.55
2016-07-04T21:49:33.803Z,65.62
2016-07-04T21:50:33.616Z,65.62
2016-07-04T21:51:33.998Z,65.71
2016-07-04T21:52:32.984Z,65.71
2016-07-04T21:53:34.211Z,65.52
2016-07-04T21:54:33.637Z,65.91
2016-07-04T21:55:33.659Z,65.62
2016-07-04T21:56:33.706Z,65.33
2016-07-04T21:57:34.245Z,65.71
2016-07-04T21:58:33.023Z,65.42
2016-07-04T21:59:33.676Z,65.52
2016-07-04T22:00:33.895Z,65.62
2016-07-04T22:01:33.897Z,65.71
2016-07-04T22:02:33.904Z,65.62
2016-07-04T22:03:33.907Z,65.71
2016-07-04T22:04:33.059Z,65.62
2016-07-04T22:05:34.340Z,65.71
2016-07-04T22:06:33.729Z,65.71
2016-07-04T22:07:33.925Z,65.52
2016-07-04T22:08:34.157Z,65.62
2016-07-04T22:09:33.760Z,65.81
2016-07-04T22:10:34.145Z,65.71
2016-07-04T22:11:33.768Z,65.58
2016-07-04T22:12:33.946Z,65.71
2016-07-04T22:13:33.778Z,65.88
2016-07-04T22:15:33.764Z,65.58
2016-07-04T22:16:33.988Z,66.06
2016-07-04T22:17:34.197Z,65.78
2016-07-04T22:18:34.003Z,66.06
2016-07-04T22:19:48.206Z,65.97
2016-07-04T22:20:48.632Z,66.16
2016-07-04T22:21:34.230Z,66.45
2016-07-04T22:22:33.856Z,66.45
2016-07-04T22:23:33.473Z,66.35
2016-07-04T22:24:33.201Z,66.25
2016-07-04T22:25:48.254Z,66.45
2016-07-04T22:26:33.861Z,66.45
2016-07-04T22:27:48.063Z,66.35
2016-07-04T22:29:33.856Z,66.83
2016-07-04T22:30:33.864Z,66.83
2016-07-04T22:31:48.100Z,66.45
2016-07-04T22:32:33.873Z,66.35
2016-07-04T22:33:33.879Z,66.54
2016-07-04T22:34:33.886Z,66.54
2016-07-04T22:35:33.892Z,66.83
2016-07-04T22:36:33.905Z,66.83
2016-07-04T22:37:33.463Z,66.83
2016-07-04T22:38:34.122Z,66.64
2016-07-04T22:39:34.334Z,66.64
2016-07-04T22:40:33.948Z,67.18
2016-07-04T22:41:48.139Z,67.02
2016-07-04T22:43:48.350Z,66.7
2016-07-04T22:44:33.306Z,67.56
2016-07-04T22:45:33.340Z,67.27
2016-07-04T22:47:33.560Z,67.18
2016-07-04T22:48:33.739Z,67.18
2016-07-04T22:51:33.351Z,67.47
2016-07-04T22:52:33.358Z,67.76
2016-07-04T22:53:33.361Z,67.47
2016-07-04T22:54:33.396Z,67.66
2016-07-04T22:55:33.371Z,67.76
2016-07-04T22:56:33.382Z,67.27
2016-07-04T22:57:33.418Z,67.27
2016-07-04T22:58:33.401Z,67.85
2016-07-04T22:59:33.411Z,67.27
2016-07-04T23:00:33.429Z,67.66
2016-07-04T23:01:33.433Z,67.47
2016-07-04T23:02:33.424Z,67.56
2016-07-04T23:03:33.431Z,67.56
2016-07-04T23:04:33.455Z,67.56
2016-07-04T23:05:33.446Z,67.56
2016-07-04T23:06:34.086Z,67.94
2016-07-04T23:07:34.083Z,68.13
2016-07-04T23:08:34.093Z,68.04
2016-07-04T23:09:34.102Z,68.23
2016-07-04T23:10:33.474Z,68.23
2016-07-04T23:11:34.731Z,68.13
2016-07-04T23:12:34.123Z,68.23
2016-07-04T23:13:34.338Z,68.29
2016-07-04T23:14:48.536Z,68.1
2016-07-04T23:15:34.757Z,68.23
2016-07-04T23:16:48.551Z,68.1
2016-07-04T23:17:33.706Z,68.23
2016-07-04T23:18:33.915Z,68.23
2016-07-04T23:19:34.116Z,68.23
2016-07-04T23:21:33.933Z,68.04
2016-07-04T23:22:33.729Z,68.23
2016-07-04T23:23:33.533Z,68.29
2016-07-04T23:24:33.543Z,68.33
2016-07-04T23:25:33.548Z,68.39
2016-07-04T23:26:33.547Z,68.23
2016-07-04T23:27:33.568Z,68.71
2016-07-04T23:28:33.585Z,68.68
2016-07-04T23:29:33.775Z,68.71
2016-07-04T23:30:33.584Z,68.23
2016-07-04T23:31:33.787Z,68.42
2016-07-04T23:32:33.798Z,68.8
2016-07-04T23:33:33.803Z,68.62
2016-07-04T23:34:33.607Z,68.58
2016-07-04T23:35:34.234Z,68.33
2016-07-04T23:36:34.283Z,68.8
2016-07-04T23:37:34.247Z,68.58
2016-07-04T23:38:34.248Z,68.58
2016-07-04T23:39:34.269Z,68.04
2016-07-04T23:40:34.272Z,68.01
2016-07-04T23:42:34.302Z,68.49
2016-07-04T23:43:34.526Z,68.87
2016-07-04T23:44:48.914Z,68.2
2016-07-04T23:45:33.665Z,68.2
2016-07-04T23:46:33.673Z,68.39
2016-07-04T23:47:34.080Z,68.58
2016-07-04T23:48:34.086Z,68.39
2016-07-04T23:50:34.100Z,68.58
2016-07-04T23:51:34.759Z,68.58
2016-07-04T23:53:33.715Z,68.58
2016-07-04T23:54:34.339Z,68.49
2016-07-04T23:55:34.750Z,68.68
2016-07-04T23:56:34.360Z,68.39
2016-07-04T23:57:34.767Z,68.39
2016-07-04T23:58:34.370Z,68.58
2016-07-04T23:59:33.749Z,68.68
